Terminal Aerodrome Forecast
Issued by NWS

Home | Current Version | Previous Version | Graphics & Text | Print | Product List | Glossary On
Versions: 1 2 3 4 5 6 7 8 9 10 11 12 13 14 15 16 17 18 19 20 21 22 23 24 25 26 27 28 29 30 31 32 33 34 35
000
FTUS43 KLOT 151100
TAFORD
TAF
KORD 151132Z 1512/1618 19010KT 1 1/2SM -DZ BR OVC003
     FM151500 17011KT 4SM BR OVC006
     FM151800 15012KT 6SM -SHRA BR OVC012
     FM152300 14013KT 4SM BR VCSH OVC010
     FM160200 13010KT 3SM -DZRA BR OVC007
     FM160700 VRB04KT 2SM -DZRA BR OVC004
     FM161300 28011KT 4SM -RA BR OVC007=

USA.gov is the U.S. government's official web portal to all federal, state and local government web resources and services.